createdAt,value
2019-03-31T00:01:12.802Z,7.58
2019-03-31T00:03:40.758Z,9.80
2019-03-31T00:06:08.646Z,8.05
2019-03-31T00:08:36.514Z,9.53
2019-03-31T00:11:04.362Z,9.95
2019-03-31T00:13:32.251Z,7.83
2019-03-31T00:16:00.121Z,9.90
2019-03-31T00:18:28.042Z,9.40
2019-03-31T00:20:56.012Z,8.50
2019-03-31T00:23:23.956Z,11.40
2019-03-31T00:25:52.718Z,8.25
2019-03-31T00:28:20.725Z,8.30
2019-03-31T00:30:48.693Z,8.10
2019-03-31T00:33:16.697Z,10.03
2019-03-31T00:35:44.660Z,8.93
2019-03-31T00:38:12.499Z,8.90
2019-03-31T00:40:40.384Z,8.60
2019-03-31T00:43:08.365Z,8.60
2019-03-31T00:45:36.363Z,8.05
2019-03-31T00:48:04.376Z,9.75
2019-03-31T00:50:32.341Z,10.05
2019-03-31T00:53:00.250Z,8.98
2019-03-31T00:55:28.151Z,9.10
2019-03-31T00:57:56.135Z,11.03
2019-03-31T01:00:41.739Z,10.25
2019-03-31T01:03:09.626Z,11.30
2019-03-31T01:05:37.506Z,10.53
2019-03-31T01:08:05.392Z,9.35
2019-03-31T01:10:33.569Z,8.50
2019-03-31T01:13:01.534Z,8.55
2019-03-31T01:15:29.555Z,11.20
2019-03-31T01:17:57.508Z,10.50
2019-03-31T01:20:25.575Z,8.58
2019-03-31T01:22:53.463Z,8.28
2019-03-31T01:25:21.443Z,9.78
2019-03-31T01:27:49.385Z,9.83
2019-03-31T01:30:18.319Z,9.73
2019-03-31T01:32:46.241Z,9.65
2019-03-31T01:35:14.645Z,9.40
2019-03-31T01:37:42.484Z,9.60
2019-03-31T01:40:10.450Z,15.58
2019-03-31T01:42:38.345Z,9.25
2019-03-31T01:45:06.273Z,7.80
2019-03-31T01:47:34.251Z,8.50
2019-03-31T01:50:02.110Z,10.15
2019-03-31T01:52:29.988Z,9.35
2019-03-31T01:54:57.848Z,10.20
2019-03-31T01:57:25.771Z,10.72
2019-03-31T01:59:53.623Z,8.08
2019-03-31T02:02:28.891Z,8.93
2019-03-31T02:07:23.505Z,11.40
2019-03-31T02:09:51.357Z,10.25
2019-03-31T02:12:19.232Z,13.48
2019-03-31T02:14:47.074Z,11.33
2019-03-31T02:17:15.064Z,9.03
2019-03-31T02:19:42.976Z,11.80
2019-03-31T02:22:10.838Z,9.10
2019-03-31T02:24:38.703Z,11.40
2019-03-31T02:27:06.639Z,12.45
2019-03-31T02:29:34.578Z,14.07
2019-03-31T02:32:02.456Z,16.62
2019-03-31T02:34:30.320Z,15.90
2019-03-31T02:36:58.206Z,12.73
2019-03-31T02:39:26.045Z,11.73
2019-03-31T02:41:53.925Z,11.10
2019-03-31T02:44:21.791Z,12.13
2019-03-31T02:46:49.755Z,9.08
2019-03-31T02:49:17.628Z,9.40
2019-03-31T02:51:45.538Z,9.13
2019-03-31T02:54:13.482Z,8.93
2019-03-31T02:56:41.336Z,9.95
2019-03-31T02:59:09.198Z,11.73
2019-03-31T03:01:37.097Z,9.63
2019-03-31T03:04:07.930Z,11.12
2019-03-31T03:06:34.579Z,9.83
2019-03-31T03:09:02.614Z,10.08
2019-03-31T03:11:30.513Z,12.40
2019-03-31T03:13:58.412Z,12.47
2019-03-31T03:16:26.359Z,14.70
2019-03-31T03:18:54.365Z,10.03
2019-03-31T03:21:24.651Z,11.35
2019-03-31T03:23:51.893Z,10.50
2019-03-31T03:26:19.861Z,11.95
2019-03-31T03:28:47.901Z,9.83
2019-03-31T03:31:16.911Z,9.38
2019-03-31T03:33:45.130Z,9.35
2019-03-31T03:36:13.049Z,9.93
2019-03-31T03:38:40.926Z,12.95
2019-03-31T03:41:08.875Z,10.38
2019-03-31T03:43:54.061Z,10.72
2019-03-31T03:46:06.418Z,10.43
2019-03-31T03:48:34.298Z,10.18
2019-03-31T03:51:02.178Z,11.55
2019-03-31T03:53:30.051Z,9.93
2019-03-31T03:55:57.925Z,11.68
2019-03-31T03:58:25.879Z,9.60
2019-03-31T04:00:53.768Z,12.43
2019-03-31T04:03:30.116Z,10.50
2019-03-31T04:05:51.321Z,9.18
2019-03-31T04:08:19.264Z,11.20
2019-03-31T04:10:47.164Z,11.43
2019-03-31T04:13:15.109Z,11.60
2019-03-31T04:15:43.153Z,12.13
2019-03-31T04:18:11.110Z,11.75
2019-03-31T04:20:39.828Z,13.20
2019-03-31T04:23:07.777Z,11.43
2019-03-31T04:25:35.874Z,11.22
2019-03-31T04:28:03.756Z,13.75
2019-03-31T04:30:31.619Z,10.30
2019-03-31T04:32:59.511Z,10.68
2019-03-31T04:35:27.595Z,11.80
2019-03-31T04:37:55.450Z,10.90
2019-03-31T04:40:23.375Z,10.63
2019-03-31T04:42:51.253Z,14.07
2019-03-31T04:45:19.163Z,10.05
2019-03-31T04:47:47.141Z,11.03
2019-03-31T04:50:15.019Z,11.35
2019-03-31T04:52:42.920Z,9.80
2019-03-31T04:55:10.794Z,11.48
2019-03-31T04:57:38.692Z,11.50
2019-03-31T05:00:06.609Z,12.58
2019-03-31T05:02:34.521Z,11.53
2019-03-31T05:05:02.444Z,10.95
2019-03-31T05:07:30.322Z,11.65
2019-03-31T05:09:58.186Z,12.00
2019-03-31T05:12:26.061Z,10.05
2019-03-31T05:14:53.952Z,10.50
2019-03-31T05:17:21.884Z,12.85
2019-03-31T05:19:49.763Z,12.65
2019-03-31T05:22:17.709Z,13.62
2019-03-31T05:24:45.599Z,15.25
2019-03-31T05:27:13.477Z,13.93
2019-03-31T05:29:41.327Z,15.43
2019-03-31T05:32:09.216Z,14.18
2019-03-31T05:34:37.236Z,14.43
2019-03-31T05:37:05.236Z,12.00
2019-03-31T05:39:33.167Z,12.15
2019-03-31T05:42:01.047Z,11.63
2019-03-31T05:44:28.943Z,12.63
2019-03-31T05:46:56.915Z,12.80
2019-03-31T05:49:24.882Z,13.35
2019-03-31T05:51:52.778Z,12.68
2019-03-31T05:54:20.626Z,13.30
2019-03-31T05:56:48.496Z,15.60
2019-03-31T05:59:16.357Z,12.65
2019-03-31T06:01:44.322Z,14.13
2019-03-31T06:04:12.160Z,15.30
2019-03-31T06:06:40.016Z,14.73
2019-03-31T06:09:07.986Z,11.95
2019-03-31T06:11:35.817Z,13.85
2019-03-31T06:14:03.721Z,12.18
2019-03-31T06:16:31.598Z,12.37
2019-03-31T06:18:59.458Z,13.22
2019-03-31T06:21:29.201Z,15.32
2019-03-31T06:23:56.904Z,13.15
2019-03-31T06:26:24.795Z,12.75
2019-03-31T06:28:52.696Z,11.63
2019-03-31T06:31:20.579Z,15.08
2019-03-31T06:33:48.466Z,12.47
2019-03-31T06:36:16.324Z,13.98
2019-03-31T06:38:44.167Z,13.08
2019-03-31T06:41:12.017Z,13.75
2019-03-31T06:43:39.885Z,14.90
2019-03-31T06:46:07.796Z,13.75
2019-03-31T06:48:35.765Z,14.10
2019-03-31T06:51:03.707Z,14.95
2019-03-31T06:53:31.586Z,14.58
2019-03-31T06:55:59.453Z,16.57
2019-03-31T06:58:27.316Z,16.52
2019-03-31T07:00:55.221Z,18.17
2019-03-31T07:03:23.058Z,15.95
2019-03-31T07:05:50.929Z,14.78
2019-03-31T07:08:18.774Z,15.32
2019-03-31T07:10:46.632Z,14.65
2019-03-31T07:13:14.491Z,15.08
2019-03-31T07:15:42.431Z,14.68
2019-03-31T07:18:10.357Z,15.68
2019-03-31T07:20:38.246Z,12.35
2019-03-31T07:23:06.091Z,13.05
2019-03-31T07:25:37.026Z,15.15
2019-03-31T07:28:03.531Z,14.83
2019-03-31T07:30:31.417Z,14.20
2019-03-31T07:32:59.295Z,14.80
2019-03-31T07:35:27.180Z,15.08
2019-03-31T07:37:55.023Z,16.73
2019-03-31T07:40:22.881Z,15.25
2019-03-31T07:42:51.273Z,15.95
2019-03-31T07:45:19.505Z,16.17
2019-03-31T07:47:47.459Z,13.90
2019-03-31T07:50:15.480Z,14.55
2019-03-31T07:52:43.623Z,14.90
2019-03-31T07:55:11.535Z,13.60
2019-03-31T07:57:39.406Z,15.35
2019-03-31T08:00:07.411Z,13.85
2019-03-31T08:02:35.427Z,14.10
2019-03-31T08:05:03.396Z,13.03
2019-03-31T08:07:31.267Z,14.35
2019-03-31T08:09:59.177Z,16.52
2019-03-31T08:12:27.049Z,13.08
2019-03-31T08:14:54.976Z,15.53
2019-03-31T08:17:22.870Z,12.78
2019-03-31T08:19:50.746Z,14.53
2019-03-31T08:22:18.616Z,12.82
2019-03-31T08:24:46.475Z,15.48
2019-03-31T08:27:14.349Z,15.08
2019-03-31T08:29:42.189Z,12.40
2019-03-31T08:32:10.085Z,14.25
2019-03-31T08:34:37.962Z,15.08
2019-03-31T08:37:05.822Z,14.25
2019-03-31T08:39:33.695Z,14.15
2019-03-31T08:42:01.587Z,14.93
2019-03-31T08:44:29.526Z,15.90
2019-03-31T08:46:57.487Z,16.35
2019-03-31T08:49:25.421Z,14.53
2019-03-31T08:51:53.256Z,13.93
2019-03-31T08:54:21.154Z,14.20
2019-03-31T08:56:49.039Z,14.70
2019-03-31T08:59:16.997Z,14.58
2019-03-31T09:01:45.469Z,14.03
2019-03-31T09:04:13.319Z,17.20
2019-03-31T09:06:41.227Z,18.17
2019-03-31T09:09:09.059Z,19.00
2019-03-31T09:11:37.083Z,20.32
2019-03-31T09:14:23.940Z,22.95
2019-03-31T09:16:51.975Z,22.98
2019-03-31T09:19:19.850Z,23.90
2019-03-31T09:21:47.744Z,23.57
2019-03-31T09:24:15.612Z,19.85
2019-03-31T09:26:43.502Z,22.27
2019-03-31T09:29:11.385Z,21.93
2019-03-31T09:31:39.318Z,21.42
2019-03-31T09:34:07.205Z,22.90
2019-03-31T09:36:35.092Z,22.00
2019-03-31T09:39:04.724Z,23.83
2019-03-31T09:41:32.742Z,26.30
2019-03-31T09:44:00.609Z,26.87
2019-03-31T09:46:28.622Z,22.62
2019-03-31T09:48:56.592Z,20.90
2019-03-31T09:51:24.478Z,24.25
2019-03-31T09:53:52.356Z,24.30
2019-03-31T09:56:20.325Z,21.62
2019-03-31T09:58:48.251Z,26.27
2019-03-31T10:01:16.129Z,25.50
2019-03-31T10:03:43.984Z,26.77
2019-03-31T10:06:11.920Z,24.40
2019-03-31T10:08:39.887Z,24.95
2019-03-31T10:11:07.782Z,21.85
2019-03-31T10:13:35.677Z,28.23
2019-03-31T10:16:03.556Z,26.68
2019-03-31T10:18:31.400Z,27.55
2019-03-31T10:20:59.291Z,25.50
2019-03-31T10:23:28.046Z,23.62
2019-03-31T10:25:55.941Z,25.15
2019-03-31T10:28:23.858Z,26.95
2019-03-31T10:30:51.845Z,25.30
2019-03-31T10:33:19.733Z,23.57
2019-03-31T10:35:47.596Z,26.10
2019-03-31T10:38:15.457Z,25.57
2019-03-31T10:40:43.445Z,24.63
2019-03-31T10:43:11.346Z,24.70
2019-03-31T10:45:39.260Z,21.97
2019-03-31T10:48:19.638Z,23.42
2019-03-31T10:50:36.831Z,23.85
2019-03-31T10:53:04.706Z,18.77
2019-03-31T10:55:32.636Z,23.42
2019-03-31T10:58:00.637Z,20.85
2019-03-31T11:00:28.566Z,19.73
2019-03-31T11:02:56.460Z,18.55
2019-03-31T11:05:24.398Z,20.75
2019-03-31T11:07:52.303Z,21.10
2019-03-31T11:10:20.197Z,22.90
2019-03-31T11:12:50.745Z,19.30
2019-03-31T11:15:17.721Z,18.30
2019-03-31T11:17:45.687Z,19.45
2019-03-31T11:20:13.588Z,16.12
2019-03-31T11:22:46.842Z,19.77
2019-03-31T11:25:20.642Z,19.55
2019-03-31T11:27:44.509Z,20.50
2019-03-31T11:30:12.353Z,16.67
2019-03-31T11:32:40.255Z,19.15
2019-03-31T11:35:08.155Z,20.82
2019-03-31T11:37:36.121Z,18.92
2019-03-31T11:40:04.005Z,20.55
2019-03-31T11:42:31.859Z,16.12
2019-03-31T11:44:59.762Z,15.93
2019-03-31T11:47:27.628Z,17.50
2019-03-31T11:49:55.491Z,14.03
2019-03-31T11:52:23.385Z,15.13
2019-03-31T11:54:51.264Z,17.80
2019-03-31T11:57:19.233Z,14.05
2019-03-31T11:59:49.697Z,14.30
2019-03-31T12:02:27.025Z,10.98
2019-03-31T12:04:46.251Z,12.03
2019-03-31T12:07:27.245Z,14.58
2019-03-31T12:09:43.839Z,11.60
2019-03-31T12:12:11.850Z,12.88
2019-03-31T12:14:39.755Z,13.25
2019-03-31T12:17:07.690Z,12.93
2019-03-31T12:19:35.599Z,14.63
2019-03-31T12:22:03.451Z,13.98
2019-03-31T12:24:31.364Z,12.88
2019-03-31T12:26:59.316Z,12.80
2019-03-31T12:29:27.227Z,11.68
2019-03-31T12:31:55.155Z,14.47
2019-03-31T12:34:23.026Z,12.23
2019-03-31T12:36:50.905Z,12.37
2019-03-31T12:39:18.912Z,11.88
2019-03-31T12:41:46.880Z,14.35
2019-03-31T12:44:14.776Z,13.88
2019-03-31T12:46:42.715Z,13.90
2019-03-31T12:49:10.594Z,13.72
2019-03-31T12:51:38.491Z,13.62
2019-03-31T12:54:06.381Z,14.73
2019-03-31T12:56:34.269Z,14.47
2019-03-31T12:59:02.277Z,14.70
2019-03-31T13:01:30.217Z,25.43
2019-03-31T13:03:58.068Z,18.02
2019-03-31T13:06:25.990Z,14.47
2019-03-31T13:08:53.973Z,13.68
2019-03-31T13:11:21.861Z,18.40
2019-03-31T13:13:49.810Z,12.60
2019-03-31T13:16:17.773Z,16.65
2019-03-31T13:18:45.650Z,12.23
2019-03-31T13:21:13.497Z,15.65
2019-03-31T13:23:41.367Z,15.58
2019-03-31T13:26:09.244Z,14.40
2019-03-31T13:28:37.141Z,12.03
2019-03-31T13:31:05.039Z,14.05
2019-03-31T13:33:32.973Z,16.80
2019-03-31T13:36:00.859Z,14.50
2019-03-31T13:38:28.943Z,13.50
2019-03-31T13:40:56.901Z,16.10
2019-03-31T13:43:24.750Z,12.85
2019-03-31T13:45:52.731Z,14.43
2019-03-31T13:48:20.584Z,13.55
2019-03-31T13:50:48.451Z,12.85
2019-03-31T13:53:16.596Z,12.15
2019-03-31T13:55:44.614Z,13.85
2019-03-31T13:58:13.854Z,10.32
2019-03-31T14:00:42.329Z,11.93
2019-03-31T14:03:10.226Z,8.23
2019-03-31T14:05:38.142Z,9.08
2019-03-31T14:08:06.087Z,8.58
2019-03-31T14:10:34.000Z,7.85
2019-03-31T14:13:01.875Z,6.95
2019-03-31T14:15:29.826Z,6.40
2019-03-31T14:17:57.706Z,8.20
2019-03-31T14:20:25.621Z,7.90
2019-03-31T14:22:53.493Z,7.97
2019-03-31T14:25:21.407Z,9.05
2019-03-31T14:27:49.346Z,8.48
2019-03-31T14:30:17.313Z,7.37
2019-03-31T14:32:45.153Z,8.85
2019-03-31T14:35:13.016Z,7.47
2019-03-31T14:37:40.888Z,8.08
2019-03-31T14:40:08.767Z,7.05
2019-03-31T14:42:36.649Z,8.80
2019-03-31T14:45:04.625Z,7.05
2019-03-31T14:47:32.476Z,10.18
2019-03-31T14:50:00.411Z,8.03
2019-03-31T14:52:28.334Z,7.50
2019-03-31T14:54:56.196Z,13.58
2019-03-31T14:57:24.049Z,14.80
2019-03-31T14:59:51.926Z,10.90
2019-03-31T15:02:19.821Z,10.10
2019-03-31T15:04:47.700Z,7.20
2019-03-31T15:07:15.614Z,6.20
2019-03-31T15:09:43.558Z,6.00
2019-03-31T15:12:11.411Z,7.55
2019-03-31T15:14:39.310Z,7.67
2019-03-31T15:17:07.180Z,8.85
2019-03-31T15:19:35.147Z,10.68
2019-03-31T15:22:03.035Z,8.25
2019-03-31T15:24:30.942Z,9.23
2019-03-31T15:26:58.907Z,9.23
2019-03-31T15:29:26.790Z,13.50
2019-03-31T15:31:54.721Z,12.80
2019-03-31T15:34:22.630Z,18.07
2019-03-31T15:36:50.657Z,15.75
2019-03-31T15:39:18.746Z,14.55
2019-03-31T15:41:46.688Z,16.90
2019-03-31T15:44:14.633Z,17.52
2019-03-31T15:46:42.504Z,17.77
2019-03-31T15:49:10.399Z,14.95
2019-03-31T15:51:38.357Z,15.00
2019-03-31T15:54:06.257Z,18.20
2019-03-31T15:56:34.274Z,17.23
2019-03-31T15:59:02.160Z,16.67
2019-03-31T16:01:30.060Z,18.12
2019-03-31T16:03:57.972Z,18.52
2019-03-31T16:06:25.865Z,19.10
2019-03-31T16:08:53.760Z,19.52
2019-03-31T16:11:21.763Z,20.72
2019-03-31T16:13:49.736Z,20.57
2019-03-31T16:16:17.708Z,16.90
2019-03-31T16:18:45.583Z,20.25
2019-03-31T16:21:13.455Z,22.95
2019-03-31T16:23:41.342Z,21.20
2019-03-31T16:26:09.358Z,19.95
2019-03-31T16:28:37.325Z,22.87
2019-03-31T16:31:05.224Z,23.70
2019-03-31T16:33:33.114Z,21.33
2019-03-31T16:36:01.072Z,26.27
2019-03-31T16:38:28.977Z,24.52
2019-03-31T16:40:56.943Z,26.50
2019-03-31T16:43:24.924Z,30.20
2019-03-31T16:45:52.968Z,28.87
2019-03-31T16:48:20.905Z,29.30
2019-03-31T16:50:48.899Z,30.75
2019-03-31T16:53:16.813Z,33.78
2019-03-31T16:55:44.763Z,33.00
2019-03-31T16:58:12.624Z,31.20
2019-03-31T17:00:40.523Z,36.03
2019-03-31T17:03:08.398Z,32.60
2019-03-31T17:05:36.352Z,36.28
2019-03-31T17:08:04.338Z,35.08
2019-03-31T17:10:32.339Z,37.60
2019-03-31T17:13:00.218Z,39.20
2019-03-31T17:15:28.115Z,33.33
2019-03-31T17:17:56.007Z,33.08
2019-03-31T17:20:23.881Z,34.25
2019-03-31T17:22:51.814Z,35.70
2019-03-31T17:25:19.807Z,33.48
2019-03-31T17:27:47.717Z,30.72
2019-03-31T17:30:15.622Z,31.85
2019-03-31T17:32:43.481Z,28.80
2019-03-31T17:35:11.483Z,34.20
2019-03-31T17:37:39.467Z,36.30
2019-03-31T17:40:07.459Z,36.50
2019-03-31T17:42:54.372Z,35.90
2019-03-31T17:45:22.355Z,37.42
2019-03-31T17:47:50.236Z,37.45
2019-03-31T17:50:18.209Z,35.55
2019-03-31T17:52:46.163Z,33.18
2019-03-31T17:55:14.193Z,34.48
2019-03-31T17:57:42.750Z,31.80
2019-03-31T18:00:11.056Z,28.30
2019-03-31T18:02:39.029Z,26.55
2019-03-31T18:05:06.917Z,23.90
2019-03-31T18:07:34.820Z,27.13
2019-03-31T18:10:02.722Z,22.48
2019-03-31T18:12:30.711Z,23.15
2019-03-31T18:14:58.573Z,21.45
2019-03-31T18:17:26.621Z,20.95
2019-03-31T18:19:54.549Z,24.92
2019-03-31T18:22:22.423Z,22.85
2019-03-31T18:24:50.371Z,20.75
2019-03-31T18:27:18.267Z,22.90
2019-03-31T18:29:46.269Z,26.42
2019-03-31T18:32:14.285Z,25.25
2019-03-31T18:34:42.258Z,22.55
2019-03-31T18:37:10.148Z,22.30
2019-03-31T18:39:38.013Z,27.62
2019-03-31T18:42:05.930Z,21.97
2019-03-31T18:44:33.832Z,25.65
2019-03-31T18:47:01.757Z,22.90
2019-03-31T18:49:29.674Z,29.20
2019-03-31T18:51:57.998Z,25.48
2019-03-31T18:54:41.577Z,25.15
2019-03-31T18:57:14.615Z,21.77
2019-03-31T19:00:16.754Z,22.87
2019-03-31T19:03:06.636Z,23.77
2019-03-31T19:06:02.770Z,28.42
2019-03-31T19:08:45.775Z,29.83
2019-03-31T19:11:31.878Z,32.28
2019-03-31T19:14:19.015Z,32.28
2019-03-31T19:17:10.036Z,35.20
2019-03-31T19:19:43.683Z,38.33
2019-03-31T19:22:29.576Z,41.92
2019-03-31T19:28:06.558Z,41.23
2019-03-31T19:31:00.072Z,45.17
2019-03-31T19:33:53.080Z,43.60
2019-03-31T19:36:33.386Z,47.05
2019-03-31T19:39:18.550Z,45.78
2019-03-31T19:42:04.140Z,48.95
2019-03-31T19:47:38.991Z,45.23
2019-03-31T19:50:23.882Z,53.53
2019-03-31T19:53:09.136Z,48.30
2019-03-31T19:56:07.301Z,53.17
2019-03-31T19:58:46.398Z,45.58
2019-03-31T20:01:30.068Z,49.35
2019-03-31T20:04:04.692Z,45.00
2019-03-31T20:06:51.317Z,47.17
2019-03-31T20:09:29.314Z,43.30
2019-03-31T20:12:06.115Z,41.77
2019-03-31T20:14:47.695Z,42.25
2019-03-31T20:17:21.263Z,43.40
2019-03-31T20:20:07.506Z,42.62
2019-03-31T20:22:56.431Z,40.10
2019-03-31T20:25:52.651Z,36.50
2019-03-31T20:31:14.725Z,39.00
2019-03-31T20:36:58.338Z,35.95
2019-03-31T20:42:32.504Z,36.58
2019-03-31T20:45:00.400Z,34.58
2019-03-31T20:47:28.297Z,34.48
2019-03-31T20:49:56.258Z,34.30
2019-03-31T20:52:24.178Z,39.48
2019-03-31T20:54:52.047Z,34.18
2019-03-31T20:57:19.938Z,34.83
2019-03-31T20:59:47.976Z,29.60
2019-03-31T21:02:16.382Z,35.13
2019-03-31T21:04:46.063Z,36.08
2019-03-31T21:07:13.913Z,33.85
2019-03-31T21:09:45.222Z,32.45
2019-03-31T21:12:11.386Z,34.88
2019-03-31T21:14:39.311Z,36.80
2019-03-31T21:17:07.268Z,36.00
2019-03-31T21:19:35.219Z,32.93
2019-03-31T21:22:03.071Z,30.32
2019-03-31T21:24:30.935Z,33.88
2019-03-31T21:26:58.818Z,31.87
2019-03-31T21:29:26.950Z,35.58
2019-03-31T21:31:54.807Z,34.78
2019-03-31T21:34:22.698Z,33.78
2019-03-31T21:36:50.708Z,32.03
2019-03-31T21:39:19.077Z,33.33
2019-03-31T21:41:47.115Z,31.90
2019-03-31T21:44:15.057Z,33.50
2019-03-31T21:46:43.024Z,32.23
2019-03-31T21:49:11.030Z,32.73
2019-03-31T21:51:38.977Z,32.90
2019-03-31T21:54:06.935Z,32.38
2019-03-31T21:56:34.815Z,30.45
2019-03-31T21:59:03.075Z,28.00
2019-03-31T22:01:31.083Z,31.17
2019-03-31T22:03:59.053Z,30.77
2019-03-31T22:06:27.002Z,31.80
2019-03-31T22:08:54.952Z,29.07
2019-03-31T22:11:22.857Z,29.90
2019-03-31T22:13:50.775Z,30.15
2019-03-31T22:16:18.687Z,31.62
2019-03-31T22:18:46.613Z,29.98
2019-03-31T22:21:14.528Z,34.30
2019-03-31T22:23:42.485Z,30.95
2019-03-31T22:26:10.508Z,32.33
2019-03-31T22:28:38.523Z,27.73
2019-03-31T22:31:06.928Z,27.07
2019-03-31T22:33:34.853Z,29.23
2019-03-31T22:36:21.194Z,29.63
2019-03-31T22:38:49.183Z,31.20
2019-03-31T22:41:17.097Z,29.52
2019-03-31T22:43:45.077Z,32.25
2019-03-31T22:46:13.001Z,30.50
2019-03-31T22:48:40.920Z,27.95
2019-03-31T22:51:08.855Z,30.52
2019-03-31T22:53:36.755Z,29.80
2019-03-31T22:56:04.667Z,29.98
2019-03-31T22:58:32.614Z,32.42
2019-03-31T23:01:00.606Z,30.50
2019-03-31T23:03:28.467Z,31.73
2019-03-31T23:05:56.360Z,31.75
2019-03-31T23:08:24.241Z,32.90
2019-03-31T23:10:52.116Z,29.57
2019-03-31T23:13:19.984Z,31.85
2019-03-31T23:15:47.986Z,27.13
2019-03-31T23:18:15.973Z,26.93
2019-03-31T23:20:43.886Z,29.72
2019-03-31T23:23:11.854Z,30.35
2019-03-31T23:25:39.817Z,30.00
2019-03-31T23:28:07.760Z,30.62
2019-03-31T23:30:35.767Z,28.62
2019-03-31T23:33:03.782Z,24.70
2019-03-31T23:35:31.785Z,29.77
2019-03-31T23:37:59.746Z,29.87
2019-03-31T23:40:27.626Z,29.85
2019-03-31T23:42:55.523Z,26.05
2019-03-31T23:45:23.480Z,27.62
2019-03-31T23:47:51.379Z,28.38
2019-03-31T23:50:19.335Z,26.82
2019-03-31T23:52:47.211Z,29.35
2019-03-31T23:55:15.062Z,28.20
2019-03-31T23:57:43.075Z,28.87
